Terminal Aerodrome Forecast
Issued by NWS Springfield, MO

Home | Current Version | Previous Version | Text Only | Print | Product List | Glossary On
Versions: 1 2 3 4 5 6 7 8 9 10 11 12 13 14 15 16 17 18 19
000
FTUS43 KSGF 302320
TAFSGF
TAF
KSGF 302320Z 0100/0124 28006KT P6SM FEW035
     FM010200 29003KT P6SM SKC
      TEMPO 0109/0113 4SM BR
     FM011500 28009KT P6SM FEW040=

USA.gov is the U.S. government's official web portal to all federal, state and local government web resources and services.